Map

Track Data

SID SEASON NUMBER BASIN SUBBASIN NAME ISO_TIME NATURE LAT LON WMO_WIND WMO_PRES WMO_AGENCY TRACK_TYPE DIST2LAND LANDFALL IFLAG USA_AGENCY USA_ATCF_ID USA_LAT USA_LON USA_RECORD USA_STATUS USA_WIND USA_PRES USA_SSHS USA_R34_NE USA_R34_SE USA_R34_SW USA_R34_NW USA_R50_NE USA_R50_SE USA_R50_SW USA_R50_NW USA_R64_NE USA_R64_SE USA_R64_SW USA_R64_NW USA_POCI USA_ROCI USA_RMW USA_EYE TOKYO_LAT TOKYO_LON TOKYO_GRADE TOKYO_WIND TOKYO_PRES TOKYO_R50_DIR TOKYO_R50_LONG TOKYO_R50_SHORT TOKYO_R30_DIR TOKYO_R30_LONG TOKYO_R30_SHORT TOKYO_LAND CMA_LAT CMA_LON CMA_CAT CMA_WIND CMA_PRES HKO_LAT HKO_LON HKO_CAT HKO_WIND HKO_PRES NEWDELHI_LAT NEWDELHI_LON NEWDELHI_GRADE NEWDELHI_WIND NEWDELHI_PRES NEWDELHI_CI NEWDELHI_DP NEWDELHI_POCI REUNION_LAT REUNION_LON REUNION_TYPE REUNION_WIND REUNION_PRES REUNION_TNUM REUNION_CI REUNION_RMW REUNION_R34_NE REUNION_R34_SE REUNION_R34_SW REUNION_R34_NW REUNION_R50_NE REUNION_R50_SE REUNION_R50_SW REUNION_R50_NW REUNION_R64_NE REUNION_R64_SE REUNION_R64_SW REUNION_R64_NW BOM_LAT BOM_LON BOM_TYPE BOM_WIND BOM_PRES BOM_TNUM BOM_CI BOM_RMW BOM_R34_NE BOM_R34_SE BOM_R34_SW BOM_R34_NW BOM_R50_NE BOM_R50_SE BOM_R50_SW BOM_R50_NW BOM_R64_NE BOM_R64_SE BOM_R64_SW BOM_R64_NW BOM_ROCI BOM_POCI BOM_EYE BOM_POS_METHOD BOM_PRES_METHOD NADI_LAT NADI_LON NADI_CAT NADI_WIND NADI_PRES WELLINGTON_LAT WELLINGTON_LON WELLINGTON_WIND WELLINGTON_PRES DS824_LAT DS824_LON DS824_STAGE DS824_WIND DS824_PRES TD9636_LAT TD9636_LON TD9636_STAGE TD9636_WIND TD9636_PRES TD9635_LAT TD9635_LON TD9635_WIND TD9635_PRES TD9635_ROCI NEUMANN_LAT NEUMANN_LON NEUMANN_CLASS NEUMANN_WIND NEUMANN_PRES MLC_LAT MLC_LON MLC_CLASS MLC_WIND MLC_PRES USA_GUST BOM_GUST BOM_GUST_PER REUNION_GUST REUNION_GUST_PER USA_SEAHGT USA_SEARAD_NE USA_SEARAD_SE USA_SEARAD_SW USA_SEARAD_NW STORM_SPEED STORM_DIR
1995244N16256 1995 59 EP MM HENRIETTE 1995-09-01 00:00:00 TS 15.7000 -103.800 25 1007 hurdat_epa main 285 281 O_____________ hurdat_epa EP091995 15.7000 -103.800 TD 25 1007 -1 11 285
1995244N16256 1995 59 EP MM HENRIETTE 1995-09-01 03:00:00 TS 15.8452 -104.352 main 295 285 P_____________ EP091995 15.8452 -104.352 TD 25 1007 -1 11 286
1995244N16256 1995 59 EP MM HENRIETTE 1995-09-01 06:00:00 TS 16.0000 -104.900 25 1007 hurdat_epa main 297 297 O_____________ hurdat_epa EP091995 16.0000 -104.900 TD 25 1007 -1 11 288
1995244N16256 1995 59 EP MM HENRIETTE 1995-09-01 09:00:00 TS 16.1775 -105.430 main 309 309 P_____________ EP091995 16.1775 -105.430 TD 25 1006 -1 10 293
1995244N16256 1995 59 EP MM HENRIETTE 1995-09-01 12:00:00 TS 16.4000 -105.900 25 1006 hurdat_epa main 331 321 O_____________ hurdat_epa EP091995 16.4000 -105.900 TD 25 1006 -1 10 301
1995244N16256 1995 59 EP MM HENRIETTE 1995-09-01 15:00:00 TS 16.6774 -106.295 main 321 311 P_____________ EP091995 16.6774 -106.295 TD 27 1006 -1 9 312
1995244N16256 1995 59 EP MM HENRIETTE 1995-09-01 18:00:00 TS 17.0000 -106.600 30 1006 hurdat_epa main 311 299 O_____________ hurdat_epa EP091995 17.0000 -106.600 TD 30 1006 -1 9 322
1995244N16256 1995 59 EP MM HENRIETTE 1995-09-01 21:00:00 TS 17.3574 -106.845 main 291 283 P_____________ EP091995 17.3574 -106.845 TD 30 1005 -1 8 331
1995244N16256 1995 59 EP MM HENRIETTE 1995-09-02 00:00:00 TS 17.7000 -107.000 30 1005 hurdat_epa main 283 268 O_____________ hurdat_epa EP091995 17.7000 -107.000 TD 30 1005 -1 6 340
1995244N16256 1995 59 EP MM HENRIETTE 1995-09-02 03:00:00 TS 17.9650 -107.073 main 268 252 P_____________ EP091995 17.9650 -107.073 TD 30 1004 -1 5 349
1995244N16256 1995 59 EP MM HENRIETTE 1995-09-02 06:00:00 TS 18.2000 -107.100 30 1004 hurdat_epa main 252 238 O_____________ hurdat_epa EP091995 18.2000 -107.100 TD 30 1004 -1 5 351
1995244N16256 1995 59 EP MM HENRIETTE 1995-09-02 09:00:00 TS 18.4425 -107.150 main 247 228 P_____________ EP091995 18.4425 -107.150 TD 32 1002 -1 5 349
1995244N16256 1995 59 EP MM HENRIETTE 1995-09-02 12:00:00 TS 18.7000 -107.200 35 1000 hurdat_epa main 228 210 O_____________ hurdat_epa EP091995 18.7000 -107.200 TS 35 1000 0 6 350
1995244N16256 1995 59 EP MM HENRIETTE 1995-09-02 15:00:00 TS 19.0075 -107.250 main 210 204 P_____________ EP091995 19.0075 -107.250 TS 40 997 0 6 351
1995244N16256 1995 59 EP MM HENRIETTE 1995-09-02 18:00:00 TS 19.3000 -107.300 45 995 hurdat_epa main 204 195 O_____________ hurdat_epa EP091995 19.3000 -107.300 TS 45 995 0 5 349
1995244N16256 1995 59 EP MM HENRIETTE 1995-09-02 21:00:00 TS 19.5150 -107.350 main 204 194 P_____________ EP091995 19.5150 -107.350 TS 52 992 0 4 347
1995244N16256 1995 59 EP MM HENRIETTE 1995-09-03 00:00:00 TS 19.7000 -107.400 60 990 hurdat_epa main 194 186 O_____________ hurdat_epa EP091995 19.7000 -107.400 TS 60 990 0 4 345
1995244N16256 1995 59 EP MM HENRIETTE 1995-09-03 03:00:00 TS 19.8925 -107.457 main 196 190 P_____________ EP091995 19.8925 -107.457 TS 67 986 1 4 347
1995244N16256 1995 59 EP MM HENRIETTE 1995-09-03 06:00:00 TS 20.1000 -107.500 75 983 hurdat_epa main 190 187 O_____________ hurdat_epa EP091995 20.1000 -107.500 HU 75 983 1 5 354
1995244N16256 1995 59 EP MM HENRIETTE 1995-09-03 09:00:00 TS 20.3500 -107.500 main 187 187 P_____________ EP091995 20.3500 -107.500 HU 75 982 1 5 2
1995244N16256 1995 59 EP MM HENRIETTE 1995-09-03 12:00:00 TS 20.6000 -107.500 75 982 hurdat_epa main 188 188 O_____________ hurdat_epa EP091995 20.6000 -107.500 HU 75 982 1 4 0
1995244N16256 1995 59 EP MM HENRIETTE 1995-09-03 15:00:00 TS 20.7925 -107.520 main 192 192 P_____________ EP091995 20.7925 -107.520 HU 75 981 1 4 347
1995244N16256 1995 59 EP MM HENRIETTE 1995-09-03 18:00:00 TS 21.0000 -107.600 75 981 hurdat_epa main 208 208 O_____________ hurdat_epa EP091995 21.0000 -107.600 HU 75 981 1 5 337
1995244N16256 1995 59 EP MM HENRIETTE 1995-09-03 21:00:00 TS 21.2924 -107.748 main 230 230 P_____________ EP091995 21.2924 -107.748 HU 75 980 1 7 328
1995244N16256 1995 59 EP MM HENRIETTE 1995-09-04 00:00:00 TS 21.6000 -108.000 75 980 hurdat_epa main 234 196 O_____________ hurdat_epa EP091995 21.6000 -108.000 HU 75 980 1 8 315
1995244N16256 1995 59 EP MM HENRIETTE 1995-09-04 03:00:00 TS 21.8575 -108.363 main 181 136 P_____________ EP091995 21.8575 -108.363 HU 77 977 1 9 304
1995244N16256 1995 59 EP MM HENRIETTE 1995-09-04 06:00:00 TS 22.1000 -108.800 80 975 hurdat_epa main 136 91 O_____________ hurdat_epa EP091995 22.1000 -108.800 HU 80 975 1 9 301
1995244N16256 1995 59 EP MM HENRIETTE 1995-09-04 09:00:00 TS 22.3424 -109.235 main 91 35 P_____________ EP091995 22.3424 -109.235 HU 82 972 1 10 301
1995244N16256 1995 59 EP MM HENRIETTE 1995-09-04 12:00:00 TS 22.6000 -109.700 85 970 hurdat_epa main 35 10 O_____________ hurdat_epa EP091995 22.6000 -109.700 HU 85 970 2 10 303
1995244N16256 1995 59 EP MM HENRIETTE 1995-09-04 15:00:00 TS 22.8997 -110.170 main 20 20 P_____________ EP091995 22.8997 -110.170 HU 82 972 1 11 303
1995244N16256 1995 59 EP MM HENRIETTE 1995-09-04 18:00:00 TS 23.2000 -110.700 80 975 hurdat_epa main 55 49 O_____________ hurdat_epa EP091995 23.2000 -110.700 HU 80 975 1 12 298
1995244N16256 1995 59 EP MM HENRIETTE 1995-09-04 21:00:00 TS 23.4574 -111.320 main 67 67 P_____________ EP091995 23.4574 -111.320 HU 77 977 1 13 293
1995244N16256 1995 59 EP MM HENRIETTE 1995-09-05 00:00:00 TS 23.7000 -112.000 75 979 hurdat_epa main 88 88 O_____________ hurdat_epa EP091995 23.7000 -112.000 HU 75 979 1 13 292
1995244N16256 1995 59 EP MM HENRIETTE 1995-09-05 03:00:00 TS 23.9647 -112.685 main 99 99 P_____________ EP091995 23.9647 -112.685 HU 75 980 1 14 291
1995244N16256 1995 59 EP MM HENRIETTE 1995-09-05 06:00:00 TS 24.2000 -113.400 75 981 hurdat_epa main 138 138 O_____________ hurdat_epa EP091995 24.2000 -113.400 HU 75 981 1 14 287
1995244N16256 1995 59 EP MM HENRIETTE 1995-09-05 09:00:00 TS 24.3797 -114.143 main 197 197 P_____________ EP091995 24.3797 -114.143 HU 72 982 1 14 282
1995244N16256 1995 59 EP MM HENRIETTE 1995-09-05 12:00:00 TS 24.5000 -114.900 70 984 hurdat_epa main 274 274 O_____________ hurdat_epa EP091995 24.5000 -114.900 HU 70 984 1 14 278
1995244N16256 1995 59 EP MM HENRIETTE 1995-09-05 15:00:00 TS 24.5646 -115.650 main 315 315 P_____________ EP091995 24.5646 -115.650 HU 67 985 1 14 274
1995244N16256 1995 59 EP MM HENRIETTE 1995-09-05 18:00:00 TS 24.6000 -116.400 65 987 hurdat_epa main 352 352 O_____________ hurdat_epa EP091995 24.6000 -116.400 HU 65 987 1 14 274
1995244N16256 1995 59 EP MM HENRIETTE 1995-09-05 21:00:00 TS 24.6573 -117.165 main 395 395 P_____________ EP091995 24.6573 -117.165 HU 60 988 0 14 274
1995244N16256 1995 59 EP MM HENRIETTE 1995-09-06 00:00:00 TS 24.7000 -117.900 55 990 hurdat_epa main 442 442 O_____________ hurdat_epa EP091995 24.7000 -117.900 TS 55 990 0 13 272
1995244N16256 1995 59 EP MM HENRIETTE 1995-09-06 03:00:00 TS 24.7070 -118.565 main 490 490 P_____________ EP091995 24.7070 -118.565 TS 52 993 0 12 270
1995244N16256 1995 59 EP MM HENRIETTE 1995-09-06 06:00:00 TS 24.7000 -119.200 50 996 hurdat_epa main 536 536 O_____________ hurdat_epa EP091995 24.7000 -119.200 TS 50 996 0 12 270
1995244N16256 1995 59 EP MM HENRIETTE 1995-09-06 09:00:00 TS 24.7073 -119.857 main 592 592 P_____________ EP091995 24.7073 -119.857 TS 45 998 0 12 270
1995244N16256 1995 59 EP MM HENRIETTE 1995-09-06 12:00:00 TS 24.7000 -120.500 40 1001 hurdat_epa main 642 642 O_____________ hurdat_epa EP091995 24.7000 -120.500 TS 40 1001 0 11 267
1995244N16256 1995 59 EP MM HENRIETTE 1995-09-06 15:00:00 TS 24.6571 -121.100 main 694 694 P_____________ EP091995 24.6571 -121.100 TS 37 1002 0 11 265
1995244N16256 1995 59 EP MM HENRIETTE 1995-09-06 18:00:00 TS 24.6000 -121.700 35 1004 hurdat_epa main 752 752 O_____________ hurdat_epa EP091995 24.6000 -121.700 TS 35 1004 0 11 265
1995244N16256 1995 59 EP MM HENRIETTE 1995-09-06 21:00:00 TS 24.5498 -122.342 main 811 811 P_____________ EP091995 24.5498 -122.342 TS 35 1004 0 12 265
1995244N16256 1995 59 EP MM HENRIETTE 1995-09-07 00:00:00 TS 24.5000 -123.000 35 1005 hurdat_epa main 874 874 O_____________ hurdat_epa EP091995 24.5000 -123.000 TS 35 1005 0 12 265
1995244N16256 1995 59 EP MM HENRIETTE 1995-09-07 03:00:00 TS 24.4423 -123.658 main 943 943 P_____________ EP091995 24.4423 -123.658 TS 32 1006 -1 12 265
1995244N16256 1995 59 EP MM HENRIETTE 1995-09-07 06:00:00 TS 24.4000 -124.300 30 1007 hurdat_epa main 998 998 O_____________ hurdat_epa EP091995 24.4000 -124.300 TD 30 1007 -1 11 267
1995244N16256 1995 59 EP MM HENRIETTE 1995-09-07 09:00:00 TS 24.3772 -124.908 main 1054 1054 P_____________ EP091995 24.3772 -124.908 TD 30 1007 -1 11 270
1995244N16256 1995 59 EP MM HENRIETTE 1995-09-07 12:00:00 TS 24.4000 -125.500 30 1008 hurdat_epa main 1110 1110 O_____________ hurdat_epa EP091995 24.4000 -125.500 TD 30 1008 -1 11 276
1995244N16256 1995 59 EP MM HENRIETTE 1995-09-07 15:00:00 TS 24.4999 -126.115 main 1163 1163 P_____________ EP091995 24.4999 -126.115 TD 30 1008 -1 11 280
1995244N16256 1995 59 EP MM HENRIETTE 1995-09-07 18:00:00 TS 24.6000 -126.700 30 1009 hurdat_epa main 1216 1216 O_____________ hurdat_epa EP091995 24.6000 -126.700 TD 30 1009 -1 10 277
1995244N16256 1995 59 EP MM HENRIETTE 1995-09-07 21:00:00 TS 24.6252 -127.220 main 1264 1264 P_____________ EP091995 24.6252 -127.220 TD 27 1009 -1 9 270
1995244N16256 1995 59 EP MM HENRIETTE 1995-09-08 00:00:00 TS 24.6000 -127.700 25 1009 hurdat_epa main 1295 O_____________ hurdat_epa EP091995 24.6000 -127.700 TD 25 1009 -1 9 267

About IBTrACS Database

This database is a web-friendly format of International Best Track Archive for Climate Stewardship (IBTrACS), a global best track data archive curated by NOAA dating back to 1842.

Updated: 2021-10-08